createdAt,value
2023-01-27T00:01:09.899Z,46.30
2023-01-27T00:03:37.469Z,45.40
2023-01-27T00:06:07.078Z,48.50
2023-01-27T00:08:34.743Z,48.80
2023-01-27T00:11:21.132Z,48.60
2023-01-27T00:13:48.966Z,48.10
2023-01-27T00:16:16.622Z,47.90
2023-01-27T00:18:44.077Z,46.60
2023-01-27T00:21:29.541Z,48.70
2023-01-27T00:24:15.471Z,45.00
2023-01-27T00:26:43.217Z,46.50
2023-01-27T00:29:10.634Z,44.70
2023-01-27T00:31:56.583Z,44.00
2023-01-27T00:34:24.141Z,51.50
2023-01-27T00:36:51.441Z,53.10
2023-01-27T00:39:18.901Z,55.30
2023-01-27T00:41:46.465Z,53.60
2023-01-27T00:44:13.822Z,54.00
2023-01-27T00:46:43.069Z,54.80
2023-01-27T00:49:11.642Z,58.70
2023-01-27T00:51:39.011Z,55.30
2023-01-27T00:54:06.736Z,53.60
2023-01-27T00:56:35.182Z,54.60
2023-01-27T00:59:02.687Z,57.10
2023-01-27T01:01:31.139Z,58.70
2023-01-27T01:04:01.566Z,60.10
2023-01-27T01:06:29.186Z,58.00
2023-01-27T01:08:59.779Z,55.00
2023-01-27T01:11:27.563Z,55.40
2023-01-27T01:13:56.390Z,62.30
2023-01-27T01:16:25.371Z,58.00
2023-01-27T01:18:53.043Z,50.10
2023-01-27T01:21:20.345Z,59.90
2023-01-27T01:23:47.961Z,58.70
2023-01-27T01:26:17.578Z,57.80
2023-01-27T01:28:46.319Z,60.10
2023-01-27T01:31:19.794Z,57.10
2023-01-27T01:33:48.431Z,62.10
2023-01-27T01:36:18.765Z,60.00
2023-01-27T01:38:47.147Z,62.50
2023-01-27T01:41:17.520Z,59.60
2023-01-27T01:43:45.032Z,61.10
2023-01-27T01:46:13.205Z,65.80
2023-01-27T01:48:54.685Z,59.00
2023-01-27T01:51:48.642Z,59.50
2023-01-27T01:54:21.155Z,62.70
2023-01-27T01:56:54.186Z,49.00
2023-01-27T01:59:30.521Z,56.20
2023-01-27T02:05:00.940Z,53.90
2023-01-27T02:07:45.284Z,49.30
2023-01-27T02:10:13.213Z,42.10
2023-01-27T02:12:40.474Z,43.60
2023-01-27T02:15:09.458Z,39.60
2023-01-27T02:17:37.448Z,38.50
2023-01-27T02:20:17.589Z,44.80
2023-01-27T02:23:09.411Z,41.90
2023-01-27T02:25:36.757Z,41.00
2023-01-27T02:28:06.048Z,35.80
2023-01-27T02:30:34.157Z,34.40
2023-01-27T02:33:01.680Z,42.30
2023-01-27T02:35:44.213Z,41.50
2023-01-27T02:38:14.287Z,37.60
2023-01-27T02:40:43.100Z,33.80
2023-01-27T02:43:10.616Z,37.70
2023-01-27T02:45:37.879Z,38.30
2023-01-27T02:48:05.601Z,42.10
2023-01-27T02:50:33.336Z,38.50
2023-01-27T02:53:01.036Z,37.60
2023-01-27T02:55:28.483Z,37.20
2023-01-27T02:57:56.411Z,35.70
2023-01-27T03:00:23.683Z,33.30
2023-01-27T03:02:50.894Z,34.80
2023-01-27T03:05:18.616Z,34.40
2023-01-27T03:07:46.207Z,32.90
2023-01-27T03:10:14.217Z,32.30
2023-01-27T03:12:41.601Z,31.50
2023-01-27T03:15:28.480Z,31.90
2023-01-27T03:18:14.055Z,33.30
2023-01-27T03:20:42.156Z,27.80
2023-01-27T03:23:10.217Z,27.20
2023-01-27T03:25:37.977Z,27.80
2023-01-27T03:28:05.493Z,32.60
2023-01-27T03:30:33.122Z,29.80
2023-01-27T03:33:00.893Z,31.30
2023-01-27T03:35:34.568Z,29.60
2023-01-27T03:38:21.227Z,27.80
2023-01-27T03:41:07.084Z,25.40
2023-01-27T03:43:53.531Z,28.40
2023-01-27T03:46:22.687Z,26.60
2023-01-27T03:48:52.324Z,30.90
2023-01-27T03:51:22.045Z,27.10
2023-01-27T03:53:49.602Z,24.80
2023-01-27T03:56:18.267Z,27.30
2023-01-27T03:58:46.746Z,28.90
2023-01-27T04:01:20.989Z,29.30
2023-01-27T04:04:09.684Z,29.20
2023-01-27T04:06:55.669Z,25.10
2023-01-27T04:09:26.826Z,26.40
2023-01-27T04:11:57.284Z,26.20
2023-01-27T04:14:38.153Z,26.70
2023-01-27T04:17:16.861Z,29.40
2023-01-27T04:19:44.638Z,28.90
2023-01-27T04:22:16.218Z,29.90
2023-01-27T04:24:43.651Z,25.00
2023-01-27T04:27:14.008Z,28.70
2023-01-27T04:29:42.989Z,30.50
2023-01-27T04:32:12.460Z,28.70
2023-01-27T04:34:41.082Z,30.80
2023-01-27T04:37:09.837Z,35.00
2023-01-27T04:39:37.357Z,33.00
2023-01-27T04:42:04.998Z,31.00
2023-01-27T04:44:32.350Z,35.50
2023-01-27T04:46:59.585Z,30.90
2023-01-27T04:49:30.269Z,38.70
2023-01-27T04:51:57.522Z,37.00
2023-01-27T04:54:25.648Z,40.30
2023-01-27T04:57:03.971Z,40.30
2023-01-27T04:59:31.578Z,37.50
2023-01-27T05:01:59.879Z,35.40
2023-01-27T05:04:27.715Z,41.80
2023-01-27T05:06:55.559Z,39.50
2023-01-27T05:09:23.216Z,36.70
2023-01-27T05:11:50.802Z,37.40
2023-01-27T05:14:18.390Z,37.80
2023-01-27T05:16:46.090Z,38.50
2023-01-27T05:19:14.084Z,38.50
2023-01-27T05:21:41.603Z,36.30
2023-01-27T05:24:10.903Z,36.60
2023-01-27T05:26:38.282Z,39.40
2023-01-27T05:29:05.699Z,36.10
2023-01-27T05:31:33.719Z,38.20
2023-01-27T05:34:03.598Z,37.40
2023-01-27T05:36:31.545Z,38.30
2023-01-27T05:39:00.805Z,38.60
2023-01-27T05:41:33.554Z,42.30
2023-01-27T05:44:00.985Z,35.90
2023-01-27T05:46:31.005Z,38.80
2023-01-27T05:49:04.782Z,36.40
2023-01-27T05:51:36.826Z,37.30
2023-01-27T05:54:04.774Z,39.40
2023-01-27T05:56:32.593Z,38.00
2023-01-27T05:59:00.307Z,38.10
2023-01-27T06:01:30.728Z,36.70
2023-01-27T06:03:59.305Z,33.30
2023-01-27T06:06:29.189Z,35.50
2023-01-27T06:08:56.748Z,33.60
2023-01-27T06:11:25.485Z,37.70
2023-01-27T06:13:54.489Z,41.10
2023-01-27T06:16:23.269Z,36.00
2023-01-27T06:18:51.097Z,39.10
2023-01-27T06:21:20.873Z,38.70
2023-01-27T06:23:49.945Z,38.50
2023-01-27T06:26:20.877Z,40.50
2023-01-27T06:28:48.960Z,42.30
2023-01-27T06:31:20.940Z,37.10
2023-01-27T06:33:49.220Z,34.00
2023-01-27T06:36:19.753Z,37.70
2023-01-27T06:38:47.282Z,40.50
2023-01-27T06:41:15.277Z,38.80
2023-01-27T06:43:42.530Z,37.70
2023-01-27T06:46:09.849Z,39.90
2023-01-27T06:48:38.716Z,40.40
2023-01-27T06:51:06.453Z,37.30
2023-01-27T06:53:35.257Z,42.50
2023-01-27T06:56:03.038Z,38.20
2023-01-27T06:58:33.376Z,41.50
2023-01-27T07:01:00.833Z,43.30
2023-01-27T07:03:28.459Z,42.90
2023-01-27T07:05:56.252Z,38.30
2023-01-27T07:08:23.699Z,44.00
2023-01-27T07:10:51.463Z,46.90
2023-01-27T07:13:21.073Z,45.20
2023-01-27T07:15:54.170Z,45.90
2023-01-27T07:18:21.470Z,45.90
2023-01-27T07:20:48.888Z,44.20
2023-01-27T07:23:16.784Z,43.90
2023-01-27T07:25:45.186Z,44.20
2023-01-27T07:28:12.719Z,42.70
2023-01-27T07:30:41.047Z,48.80
2023-01-27T07:33:10.799Z,48.20
2023-01-27T07:35:40.529Z,42.70
2023-01-27T07:38:08.763Z,36.90
2023-01-27T07:40:37.000Z,41.90
2023-01-27T07:43:04.774Z,46.70
2023-01-27T07:45:32.721Z,45.00
2023-01-27T07:48:04.809Z,44.80
2023-01-27T07:50:32.932Z,40.40
2023-01-27T07:53:02.114Z,42.80
2023-01-27T07:55:30.431Z,43.40
2023-01-27T07:57:58.175Z,43.70
2023-01-27T08:00:25.924Z,44.10
2023-01-27T08:02:54.776Z,32.90
2023-01-27T08:05:25.673Z,42.90
2023-01-27T08:07:57.135Z,49.30
2023-01-27T08:10:32.708Z,46.20
2023-01-27T08:13:00.094Z,45.70
2023-01-27T08:15:28.423Z,48.50
2023-01-27T08:17:57.315Z,41.30
2023-01-27T08:20:27.054Z,43.60
2023-01-27T08:22:55.409Z,42.70
2023-01-27T08:25:23.017Z,46.60
2023-01-27T08:27:52.808Z,45.80
2023-01-27T08:30:20.886Z,44.10
2023-01-27T08:32:48.690Z,47.00
2023-01-27T08:35:16.307Z,49.30
2023-01-27T08:37:44.199Z,47.60
2023-01-27T08:40:13.121Z,48.10
2023-01-27T08:42:41.367Z,48.40
2023-01-27T08:45:11.434Z,48.50
2023-01-27T08:47:39.101Z,51.10
2023-01-27T08:50:06.713Z,54.10
2023-01-27T08:52:34.096Z,49.90
2023-01-27T08:55:01.581Z,45.50
2023-01-27T08:57:32.968Z,46.20
2023-01-27T09:00:01.056Z,45.70
2023-01-27T09:02:28.340Z,49.00
2023-01-27T09:04:56.175Z,41.20
2023-01-27T09:07:23.335Z,42.00
2023-01-27T09:09:56.020Z,44.60
2023-01-27T09:12:28.916Z,45.50
2023-01-27T09:14:58.518Z,53.90
2023-01-27T09:17:26.314Z,49.30
2023-01-27T09:19:54.231Z,48.70
2023-01-27T09:22:21.667Z,45.70
2023-01-27T09:24:49.151Z,43.50
2023-01-27T09:27:18.113Z,50.40
2023-01-27T09:29:46.927Z,41.70
2023-01-27T09:32:14.236Z,44.00
2023-01-27T09:34:42.285Z,45.80
2023-01-27T09:37:11.342Z,41.40
2023-01-27T09:39:56.345Z,45.70
2023-01-27T09:42:29.652Z,43.60
2023-01-27T09:45:10.375Z,47.30
2023-01-27T09:47:46.905Z,44.90
2023-01-27T09:50:31.567Z,43.20
2023-01-27T09:53:08.827Z,43.30
2023-01-27T09:55:45.566Z,42.90
2023-01-27T09:58:33.114Z,40.70
2023-01-27T10:01:34.553Z,42.90
2023-01-27T10:04:17.107Z,42.50
2023-01-27T10:07:02.058Z,42.20
2023-01-27T10:10:02.565Z,43.00
2023-01-27T10:12:57.425Z,46.40
2023-01-27T10:15:57.108Z,38.40
2023-01-27T10:18:59.800Z,43.10
2023-01-27T10:21:43.982Z,44.70
2023-01-27T10:24:44.138Z,47.70
2023-01-27T10:27:20.520Z,49.30
2023-01-27T10:29:52.268Z,47.20
2023-01-27T10:32:27.200Z,49.20
2023-01-27T10:35:09.420Z,47.70
2023-01-27T10:37:59.007Z,48.70
2023-01-27T10:40:36.248Z,45.50
2023-01-27T10:43:35.488Z,51.70
2023-01-27T10:46:26.103Z,45.20
2023-01-27T10:49:04.517Z,42.40
2023-01-27T10:52:06.971Z,47.10
2023-01-27T10:55:01.673Z,44.10
2023-01-27T10:57:36.473Z,41.30
2023-01-27T11:03:41.609Z,36.20
2023-01-27T11:06:16.344Z,40.90
2023-01-27T11:08:50.209Z,38.60
2023-01-27T11:11:40.060Z,46.70
2023-01-27T11:14:26.512Z,39.50
2023-01-27T11:17:31.495Z,36.40
2023-01-27T11:20:37.628Z,34.70
2023-01-27T11:23:11.681Z,38.70
2023-01-27T11:25:53.406Z,40.60
2023-01-27T11:28:50.153Z,39.00
2023-01-27T11:31:58.597Z,37.10
2023-01-27T11:34:36.043Z,34.70
2023-01-27T11:37:23.920Z,33.70
2023-01-27T11:39:52.009Z,34.90
2023-01-27T11:42:20.625Z,38.00
2023-01-27T11:44:56.176Z,38.10
2023-01-27T11:47:42.909Z,40.20
2023-01-27T11:50:18.399Z,35.40
2023-01-27T11:52:49.706Z,36.60
2023-01-27T11:55:25.507Z,36.10
2023-01-27T11:58:11.492Z,30.00
2023-01-27T12:00:45.975Z,35.70
2023-01-27T12:03:32.848Z,33.70
2023-01-27T12:06:08.150Z,25.90
2023-01-27T12:08:41.062Z,27.90
2023-01-27T12:11:26.337Z,29.90
2023-01-27T12:14:05.119Z,29.90
2023-01-27T12:16:46.555Z,31.30
2023-01-27T12:19:33.289Z,32.80
2023-01-27T12:24:46.625Z,30.30
2023-01-27T12:27:31.608Z,30.70
2023-01-27T12:30:04.628Z,29.50
2023-01-27T12:32:41.526Z,29.90
2023-01-27T12:35:21.784Z,28.90
2023-01-27T12:37:50.481Z,29.90
2023-01-27T12:40:22.953Z,31.50
2023-01-27T12:43:03.463Z,34.50
2023-01-27T12:45:39.674Z,31.70
2023-01-27T12:48:10.054Z,35.20
2023-01-27T12:50:42.784Z,33.20
2023-01-27T12:53:15.192Z,32.00
2023-01-27T12:56:16.391Z,33.90
2023-01-27T12:58:55.944Z,35.70
2023-01-27T13:01:38.785Z,34.40
2023-01-27T13:04:24.020Z,34.10
2023-01-27T13:06:57.111Z,33.00
2023-01-27T13:09:27.255Z,34.10
2023-01-27T13:11:57.673Z,34.80
2023-01-27T13:14:35.042Z,33.70
2023-01-27T13:17:04.140Z,36.30
2023-01-27T13:19:47.418Z,35.00
2023-01-27T13:22:25.375Z,34.70
2023-01-27T13:24:59.450Z,33.40
2023-01-27T13:27:30.152Z,28.70
2023-01-27T13:30:07.917Z,33.80
2023-01-27T13:32:37.908Z,31.90
2023-01-27T13:35:07.732Z,37.80
2023-01-27T13:37:43.519Z,37.40
2023-01-27T13:40:29.413Z,36.50
2023-01-27T13:43:11.365Z,37.20
2023-01-27T13:45:41.156Z,34.10
2023-01-27T13:48:17.551Z,32.20
2023-01-27T13:53:20.391Z,30.20
2023-01-27T13:56:27.115Z,40.10
2023-01-27T13:59:36.456Z,36.90
2023-01-27T14:02:28.612Z,38.90
2023-01-27T14:05:33.458Z,39.20
2023-01-27T14:08:21.711Z,43.10
2023-01-27T14:10:55.317Z,44.60
2023-01-27T14:13:25.636Z,42.80
2023-01-27T14:16:19.509Z,42.30
2023-01-27T14:19:16.074Z,39.60
2023-01-27T14:21:54.352Z,41.60
2023-01-27T14:24:31.126Z,44.20
2023-01-27T14:27:08.813Z,45.00
2023-01-27T14:29:52.512Z,36.60
2023-01-27T14:32:41.571Z,38.30
2023-01-27T14:36:04.213Z,40.60
2023-01-27T14:38:34.609Z,35.80
2023-01-27T14:41:32.601Z,31.00
2023-01-27T14:44:18.868Z,32.10
2023-01-27T14:47:18.097Z,23.50
2023-01-27T14:49:57.545Z,15.60
2023-01-27T14:52:55.135Z,18.50
2023-01-27T14:55:47.403Z,16.10
2023-01-27T14:58:41.191Z,16.50
2023-01-27T15:01:47.239Z,13.30
2023-01-27T15:04:30.469Z,13.20
2023-01-27T15:07:14.662Z,18.90
2023-01-27T15:09:50.527Z,17.00
2023-01-27T15:12:20.900Z,18.20
2023-01-27T15:15:20.744Z,17.50
2023-01-27T15:18:04.444Z,19.10
2023-01-27T15:20:57.267Z,14.40
2023-01-27T15:23:40.716Z,24.30
2023-01-27T15:26:10.239Z,22.50
2023-01-27T15:28:40.910Z,23.40
2023-01-27T15:31:17.757Z,22.30
2023-01-27T15:34:03.391Z,21.50
2023-01-27T15:36:32.542Z,22.50
2023-01-27T15:39:00.162Z,23.80
2023-01-27T15:41:27.553Z,23.80
2023-01-27T15:44:16.505Z,18.50
2023-01-27T15:46:52.261Z,20.70
2023-01-27T15:49:29.649Z,20.70
2023-01-27T15:52:09.953Z,23.50
2023-01-27T15:54:42.136Z,22.40
2023-01-27T15:57:28.337Z,17.10
2023-01-27T16:00:02.306Z,18.90
2023-01-27T16:02:31.457Z,19.70
2023-01-27T16:05:23.738Z,22.00
2023-01-27T16:07:55.019Z,21.60
2023-01-27T16:10:25.196Z,22.50
2023-01-27T16:13:15.401Z,90.60
2023-01-27T16:15:42.749Z,34.20
2023-01-27T16:18:09.973Z,28.70
2023-01-27T16:20:53.062Z,24.90
2023-01-27T16:23:42.087Z,25.70
2023-01-27T16:26:31.328Z,22.40
2023-01-27T16:29:06.936Z,26.90
2023-01-27T16:31:37.487Z,24.60
2023-01-27T16:34:13.142Z,22.70
2023-01-27T16:36:41.152Z,21.20
2023-01-27T16:39:31.440Z,20.50
2023-01-27T16:42:00.514Z,21.20
2023-01-27T16:44:41.986Z,22.30
2023-01-27T16:47:21.481Z,22.20
2023-01-27T16:49:50.942Z,24.50
2023-01-27T16:52:32.462Z,24.80
2023-01-27T16:55:07.250Z,26.70
2023-01-27T16:57:37.133Z,29.80
2023-01-27T17:00:24.876Z,28.50
2023-01-27T17:02:54.135Z,27.40
2023-01-27T17:05:22.855Z,28.00
2023-01-27T17:08:19.098Z,27.90
2023-01-27T17:10:51.562Z,27.10
2023-01-27T17:13:33.800Z,27.90
2023-01-27T17:16:05.190Z,30.40
2023-01-27T17:18:51.825Z,31.20
2023-01-27T17:21:42.289Z,29.30
2023-01-27T17:24:19.138Z,28.00
2023-01-27T17:26:50.694Z,30.30
2023-01-27T17:29:21.990Z,27.10
2023-01-27T17:31:50.733Z,29.70
2023-01-27T17:34:23.246Z,36.60
2023-01-27T17:37:15.909Z,30.30
2023-01-27T17:39:44.250Z,28.30
2023-01-27T17:42:17.885Z,29.30
2023-01-27T17:44:48.049Z,28.00
2023-01-27T17:47:19.103Z,31.50
2023-01-27T17:49:49.565Z,24.80
2023-01-27T17:52:25.657Z,24.60
2023-01-27T17:54:53.480Z,21.10
2023-01-27T17:57:24.491Z,24.30
2023-01-27T17:59:54.688Z,20.70
2023-01-27T18:02:34.280Z,21.40
2023-01-27T18:05:06.346Z,22.80
2023-01-27T18:07:34.459Z,23.90
2023-01-27T18:10:01.782Z,25.40
2023-01-27T18:12:39.561Z,25.30
2023-01-27T18:15:43.963Z,26.40
2023-01-27T18:18:33.189Z,22.90
2023-01-27T18:21:10.182Z,20.90
2023-01-27T18:23:51.334Z,20.30
2023-01-27T18:26:33.905Z,22.10
2023-01-27T18:29:07.637Z,30.30
2023-01-27T18:31:46.793Z,28.90
2023-01-27T18:34:36.655Z,29.30
2023-01-27T18:37:25.167Z,26.20
2023-01-27T18:39:57.025Z,28.00
2023-01-27T18:42:26.229Z,29.80
2023-01-27T18:44:54.294Z,27.40
2023-01-27T18:47:34.427Z,22.70
2023-01-27T18:50:14.405Z,30.60
2023-01-27T18:52:43.377Z,35.30
2023-01-27T18:55:19.551Z,29.50
2023-01-27T18:57:50.299Z,29.80
2023-01-27T19:00:24.315Z,31.20
2023-01-27T19:02:55.466Z,30.60
2023-01-27T19:05:34.619Z,32.50
2023-01-27T19:08:03.657Z,28.70
2023-01-27T19:10:38.174Z,34.40
2023-01-27T19:13:06.556Z,34.00
2023-01-27T19:15:38.175Z,29.00
2023-01-27T19:18:18.979Z,31.00
2023-01-27T19:20:47.256Z,31.70
2023-01-27T19:23:16.830Z,35.70
2023-01-27T19:25:48.283Z,30.50
2023-01-27T19:28:29.492Z,29.10
2023-01-27T19:30:58.216Z,35.10
2023-01-27T19:33:28.465Z,36.60
2023-01-27T19:36:04.106Z,35.80
2023-01-27T19:38:32.770Z,34.30
2023-01-27T19:41:00.548Z,37.20
2023-01-27T19:43:28.629Z,32.00
2023-01-27T19:45:56.611Z,37.20
2023-01-27T19:48:27.294Z,38.20
2023-01-27T19:50:55.689Z,44.50
2023-01-27T19:53:24.379Z,34.80
2023-01-27T19:55:55.912Z,49.60
2023-01-27T19:58:28.298Z,49.70
2023-01-27T20:00:58.248Z,40.90
2023-01-27T20:03:26.640Z,45.80
2023-01-27T20:05:54.417Z,38.70
2023-01-27T20:08:23.345Z,42.70
2023-01-27T20:10:52.013Z,42.50
2023-01-27T20:13:21.846Z,36.30
2023-01-27T20:15:50.372Z,42.10
2023-01-27T20:18:22.064Z,44.60
2023-01-27T20:20:52.499Z,40.50
2023-01-27T20:23:20.992Z,40.40
2023-01-27T20:25:50.772Z,41.40
2023-01-27T20:28:20.312Z,43.80
2023-01-27T20:30:49.227Z,43.70
2023-01-27T20:33:18.872Z,44.00
2023-01-27T20:35:47.661Z,43.90
2023-01-27T20:38:15.645Z,39.50
2023-01-27T20:40:45.848Z,52.30
2023-01-27T20:43:17.285Z,53.70
2023-01-27T20:45:52.379Z,43.60
2023-01-27T20:48:21.019Z,44.90
2023-01-27T20:50:59.579Z,54.60
2023-01-27T20:53:32.209Z,50.30
2023-01-27T20:56:01.637Z,52.30
2023-01-27T20:58:31.077Z,47.50
2023-01-27T21:01:17.107Z,50.10
2023-01-27T21:03:45.161Z,49.20
2023-01-27T21:06:16.657Z,43.10
2023-01-27T21:08:45.052Z,47.90
2023-01-27T21:11:13.459Z,50.70
2023-01-27T21:13:41.340Z,48.70
2023-01-27T21:16:10.028Z,50.70
2023-01-27T21:18:38.356Z,52.70
2023-01-27T21:21:20.959Z,59.90
2023-01-27T21:23:48.769Z,54.00
2023-01-27T21:26:16.467Z,60.00
2023-01-27T21:28:44.139Z,63.50
2023-01-27T21:31:19.472Z,54.30
2023-01-27T21:33:52.070Z,52.40
2023-01-27T21:36:19.862Z,54.60
2023-01-27T21:38:50.807Z,50.60
2023-01-27T21:41:52.763Z,63.00
2023-01-27T21:44:47.900Z,53.10
2023-01-27T21:47:18.716Z,50.80
2023-01-27T21:50:02.977Z,47.10
2023-01-27T21:52:33.299Z,46.50
2023-01-27T21:55:02.403Z,49.70
2023-01-27T21:57:30.191Z,53.10
2023-01-27T21:59:57.888Z,54.60
2023-01-27T22:02:25.905Z,60.40
2023-01-27T22:04:53.447Z,68.10
2023-01-27T22:07:21.228Z,62.40
2023-01-27T22:09:48.887Z,61.30
2023-01-27T22:12:17.491Z,64.70
2023-01-27T22:14:45.074Z,55.70
2023-01-27T22:17:12.737Z,59.50
2023-01-27T22:19:40.551Z,50.20
2023-01-27T22:22:10.865Z,44.00
2023-01-27T22:24:38.113Z,39.70
2023-01-27T22:27:05.889Z,45.30
2023-01-27T22:29:33.452Z,49.50
2023-01-27T22:32:01.442Z,47.20
2023-01-27T22:34:28.965Z,46.20
2023-01-27T22:36:56.778Z,41.70
2023-01-27T22:39:24.057Z,41.50
2023-01-27T22:41:51.337Z,37.30
2023-01-27T22:44:19.036Z,36.50
2023-01-27T22:46:49.978Z,36.50
2023-01-27T22:49:17.454Z,40.00
2023-01-27T22:51:47.759Z,37.20
2023-01-27T22:54:16.248Z,37.20
2023-01-27T22:56:43.700Z,24.70
2023-01-27T22:59:14.410Z,33.10
2023-01-27T23:01:41.837Z,33.40
2023-01-27T23:04:12.165Z,35.20
2023-01-27T23:06:39.605Z,36.20
2023-01-27T23:09:07.065Z,33.60
2023-01-27T23:11:34.603Z,34.60
2023-01-27T23:14:02.599Z,31.20
2023-01-27T23:16:30.239Z,32.80
2023-01-27T23:18:57.880Z,32.50
2023-01-27T23:21:25.402Z,31.20
2023-01-27T23:23:53.025Z,34.70
2023-01-27T23:26:20.430Z,38.20
2023-01-27T23:28:48.315Z,33.60
2023-01-27T23:31:15.681Z,34.10
2023-01-27T23:33:44.598Z,34.20
2023-01-27T23:36:12.478Z,29.80
2023-01-27T23:38:39.786Z,30.30
2023-01-27T23:41:18.752Z,25.50
2023-01-27T23:43:52.480Z,27.40
2023-01-27T23:46:20.346Z,30.50
2023-01-27T23:48:52.003Z,27.60
2023-01-27T23:51:20.269Z,25.50
2023-01-27T23:53:48.339Z,26.70
2023-01-27T23:56:23.525Z,28.40
2023-01-27T23:58:52.068Z,28.80
